Terminal Aerodrome Forecast
Issued by NWS

Home | Current Version | Previous Version | Text Only | Print | Product List | Glossary On
Versions: 1 2 3 4 5 6 7 8 9 10 11 12 13 14 15 16 17 18 19 20 21 22 23 24 25 26 27 28 29 30 31
000
FTUS41 KBOX 212320
TAFBED
TAF
KBED 212320Z 2200/2224 VRB03KT P6SM FEW140
     FM220800 00000KT P6SM BKN030
     FM221300 00000KT 5SM BR OVC015
     FM221600 VRB03KT 5SM BR VCSH OVC008
     FM222200 06004KT 4SM BR VCSH OVC003=

USA.gov is the U.S. government's official web portal to all federal, state and local government web resources and services.